sensor_id;sensor_type;location;lat;lon;timestamp;pressure;altitude;pressure_sealevel;temperature;humidity
30967;BME280;17649;51.836;8.330;2024-01-30T00:00:43;102224.81;;;4.29;100.00
30967;BME280;17649;51.836;8.330;2024-01-30T00:03:43;102232.50;;;4.29;100.00
30967;BME280;17649;51.836;8.330;2024-01-30T00:06:43;102229.09;;;4.27;100.00
30967;BME280;17649;51.836;8.330;2024-01-30T00:09:46;102231.69;;;4.18;100.00
30967;BME280;17649;51.836;8.330;2024-01-30T00:12:46;102226.56;;;4.23;100.00
30967;BME280;17649;51.836;8.330;2024-01-30T00:15:46;102230.00;;;4.18;100.00
30967;BME280;17649;51.836;8.330;2024-01-30T00:18:46;102229.13;;;4.16;100.00
30967;BME280;17649;51.836;8.330;2024-01-30T00:21:47;102229.13;;;4.23;100.00
30967;BME280;17649;51.836;8.330;2024-01-30T00:24:47;102227.41;;;4.20;100.00
30967;BME280;17649;51.836;8.330;2024-01-30T00:27:47;102222.28;;;4.25;100.00
30967;BME280;17649;51.836;8.330;2024-01-30T00:30:47;102224.81;;;4.32;100.00
30967;BME280;17649;51.836;8.330;2024-01-30T00:33:47;102224.84;;;4.22;100.00
30967;BME280;17649;51.836;8.330;2024-01-30T00:36:48;102227.38;;;4.26;100.00
30967;BME280;17649;51.836;8.330;2024-01-30T00:39:48;102229.97;;;4.23;100.00
30967;BME280;17649;51.836;8.330;2024-01-30T00:42:48;102228.28;;;4.14;100.00
30967;BME280;17649;51.836;8.330;2024-01-30T00:45:48;102220.59;;;4.17;100.00
30967;BME280;17649;51.836;8.330;2024-01-30T00:48:48;102224.03;;;4.06;100.00
30967;BME280;17649;51.836;8.330;2024-01-30T00:51:49;102222.34;;;3.99;100.00
30967;BME280;17649;51.836;8.330;2024-01-30T00:54:49;102227.44;;;4.00;100.00
30967;BME280;17649;51.836;8.330;2024-01-30T00:57:49;102228.34;;;3.92;100.00
30967;BME280;17649;51.836;8.330;2024-01-30T01:00:49;102216.34;;;4.00;100.00
30967;BME280;17649;51.836;8.330;2024-01-30T01:03:49;102219.78;;;4.02;100.00
30967;BME280;17649;51.836;8.330;2024-01-30T01:06:50;102213.81;;;4.04;100.00
30967;BME280;17649;51.836;8.330;2024-01-30T01:09:50;102209.53;;;4.05;100.00
30967;BME280;17649;51.836;8.330;2024-01-30T01:12:50;102221.50;;;3.97;100.00
30967;BME280;17649;51.836;8.330;2024-01-30T01:15:51;102216.38;;;3.97;100.00
30967;BME280;17649;51.836;8.330;2024-01-30T01:18:51;102209.53;;;3.96;100.00
30967;BME280;17649;51.836;8.330;2024-01-30T01:21:51;102221.53;;;3.91;100.00
30967;BME280;17649;51.836;8.330;2024-01-30T01:24:52;102213.84;;;3.77;100.00
30967;BME280;17649;51.836;8.330;2024-01-30T01:27:52;102211.25;;;3.94;100.00
30967;BME280;17649;51.836;8.330;2024-01-30T01:30:52;102212.09;;;3.96;100.00
30967;BME280;17649;51.836;8.330;2024-01-30T01:33:52;102215.50;;;4.07;100.00
30967;BME280;17649;51.836;8.330;2024-01-30T01:36:53;102217.16;;;4.15;100.00
30967;BME280;17649;51.836;8.330;2024-01-30T01:39:55;102212.88;;;4.22;100.00
30967;BME280;17649;51.836;8.330;2024-01-30T01:42:55;102212.88;;;4.22;100.00
30967;BME280;17649;51.836;8.330;2024-01-30T01:45:55;102211.22;;;4.10;100.00
30967;BME280;17649;51.836;8.330;2024-01-30T01:48:56;102212.91;;;4.17;100.00
30967;BME280;17649;51.836;8.330;2024-01-30T01:51:56;102212.91;;;4.17;100.00
30967;BME280;17649;51.836;8.330;2024-01-30T01:54:58;102206.06;;;4.21;100.00
30967;BME280;17649;51.836;8.330;2024-01-30T01:57:58;102196.63;;;4.28;100.00
30967;BME280;17649;51.836;8.330;2024-01-30T02:00:59;102197.47;;;4.36;100.00
30967;BME280;17649;51.836;8.330;2024-01-30T02:03:59;102195.78;;;4.33;100.00
30967;BME280;17649;51.836;8.330;2024-01-30T02:07:00;102184.66;;;4.33;100.00
30967;BME280;17649;51.836;8.330;2024-01-30T02:10:00;102187.22;;;4.30;100.00
30967;BME280;17649;51.836;8.330;2024-01-30T02:13:01;102183.03;;;4.18;100.00
30967;BME280;17649;51.836;8.330;2024-01-30T02:16:01;102189.88;;;4.08;100.00
30967;BME280;17649;51.836;8.330;2024-01-30T02:19:01;102185.59;;;4.10;100.00
30967;BME280;17649;51.836;8.330;2024-01-30T02:22:03;102178.81;;;4.03;100.00
30967;BME280;17649;51.836;8.330;2024-01-30T02:25:04;102179.63;;;4.08;100.00
30967;BME280;17649;51.836;8.330;2024-01-30T02:28:04;102181.34;;;4.08;100.00
30967;BME280;17649;51.836;8.330;2024-01-30T02:31:04;102189.84;;;4.13;100.00
30967;BME280;17649;51.836;8.330;2024-01-30T02:34:04;102179.63;;;4.08;100.00
30967;BME280;17649;51.836;8.330;2024-01-30T02:37:05;102177.94;;;4.00;100.00
30967;BME280;17649;51.836;8.330;2024-01-30T02:40:05;102172.88;;;3.89;100.00
30967;BME280;17649;51.836;8.330;2024-01-30T02:43:05;102176.25;;;3.86;100.00
30967;BME280;17649;51.836;8.330;2024-01-30T02:46:06;102172.03;;;3.76;100.00
30967;BME280;17649;51.836;8.330;2024-01-30T02:49:06;102163.53;;;3.73;100.00
30967;BME280;17649;51.836;8.330;2024-01-30T02:52:06;102163.50;;;3.76;100.00
30967;BME280;17649;51.836;8.330;2024-01-30T02:55:07;102161.75;;;3.84;100.00
30967;BME280;17649;51.836;8.330;2024-01-30T02:58:07;102154.94;;;3.91;100.00
30967;BME280;17649;51.836;8.330;2024-01-30T03:01:07;102147.19;;;4.06;100.00
30967;BME280;17649;51.836;8.330;2024-01-30T03:04:07;102147.13;;;4.15;100.00
30967;BME280;17649;51.836;8.330;2024-01-30T03:07:08;102143.69;;;4.25;100.00
30967;BME280;17649;51.836;8.330;2024-01-30T03:10:08;102143.66;;;4.31;100.00
30967;BME280;17649;51.836;8.330;2024-01-30T03:13:08;102137.59;;;4.44;100.00
30967;BME280;17649;51.836;8.330;2024-01-30T03:16:08;102136.72;;;4.52;100.00
30967;BME280;17649;51.836;8.330;2024-01-30T03:19:09;102136.72;;;4.53;100.00
30967;BME280;17649;51.836;8.330;2024-01-30T03:22:09;102136.69;;;4.56;100.00
30967;BME280;17649;51.836;8.330;2024-01-30T03:25:09;102140.94;;;4.62;100.00
30967;BME280;17649;51.836;8.330;2024-01-30T03:28:09;102135.75;;;4.69;100.00
30967;BME280;17649;51.836;8.330;2024-01-30T03:31:10;102126.38;;;4.67;100.00
30967;BME280;17649;51.836;8.330;2024-01-30T03:34:10;102126.31;;;4.74;100.00
30967;BME280;17649;51.836;8.330;2024-01-30T03:37:10;102119.47;;;4.73;100.00
30967;BME280;17649;51.836;8.330;2024-01-30T03:40:10;102118.63;;;4.71;100.00
30967;BME280;17649;51.836;8.330;2024-01-30T03:43:11;102117.81;;;4.66;100.00
30967;BME280;17649;51.836;8.330;2024-01-30T03:46:11;102116.16;;;4.62;100.00
30967;BME280;17649;51.836;8.330;2024-01-30T03:49:12;102117.78;;;4.69;100.00
30967;BME280;17649;51.836;8.330;2024-01-30T03:52:12;102115.25;;;4.68;100.00
30967;BME280;17649;51.836;8.330;2024-01-30T03:55:12;102118.72;;;4.58;100.00
30967;BME280;17649;51.836;8.330;2024-01-30T03:58:12;102105.91;;;4.58;100.00
30967;BME280;17649;51.836;8.330;2024-01-30T04:01:15;102100.00;;;4.49;100.00
30967;BME280;17649;51.836;8.330;2024-01-30T04:04:15;102099.97;;;4.51;100.00
30967;BME280;17649;51.836;8.330;2024-01-30T04:07:15;102101.72;;;4.47;100.00
30967;BME280;17649;51.836;8.330;2024-01-30T04:10:16;102102.56;;;4.48;100.00
30967;BME280;17649;51.836;8.330;2024-01-30T04:13:16;102103.50;;;4.36;100.00
30967;BME280;17649;51.836;8.330;2024-01-30T04:16:20;102100.97;;;4.32;100.00
30967;BME280;17649;51.836;8.330;2024-01-30T04:19:21;102104.44;;;4.20;100.00
30967;BME280;17649;51.836;8.330;2024-01-30T04:22:21;102093.34;;;4.15;100.00
30967;BME280;17649;51.836;8.330;2024-01-30T04:25:21;102089.94;;;4.11;100.00
30967;BME280;17649;51.836;8.330;2024-01-30T04:28:21;102093.41;;;4.06;100.00
30967;BME280;17649;51.836;8.330;2024-01-30T04:31:22;102087.44;;;4.05;100.00
30967;BME280;17649;51.836;8.330;2024-01-30T04:34:22;102084.84;;;4.10;100.00
30967;BME280;17649;51.836;8.330;2024-01-30T04:37:22;102089.16;;;4.02;100.00
30967;BME280;17649;51.836;8.330;2024-01-30T04:40:23;102088.28;;;4.01;100.00
30967;BME280;17649;51.836;8.330;2024-01-30T04:43:23;102097.72;;;3.93;100.00
30967;BME280;17649;51.836;8.330;2024-01-30T04:46:23;102095.16;;;3.95;100.00
30967;BME280;17649;51.836;8.330;2024-01-30T04:49:24;102097.69;;;4.02;100.00
30967;BME280;17649;51.836;8.330;2024-01-30T04:52:24;102089.97;;;4.07;100.00
30967;BME280;17649;51.836;8.330;2024-01-30T04:55:24;102089.16;;;4.03;100.00
30967;BME280;17649;51.836;8.330;2024-01-30T04:58:24;102096.88;;;3.93;100.00
30967;BME280;17649;51.836;8.330;2024-01-30T05:01:24;102090.06;;;3.85;100.00
30967;BME280;17649;51.836;8.330;2024-01-30T05:04:25;102093.47;;;3.84;100.00
30967;BME280;17649;51.836;8.330;2024-01-30T05:07:25;102087.53;;;3.79;100.00
30967;BME280;17649;51.836;8.330;2024-01-30T05:10:25;102087.53;;;3.78;100.00
30967;BME280;17649;51.836;8.330;2024-01-30T05:13:25;102087.53;;;3.72;100.00
30967;BME280;17649;51.836;8.330;2024-01-30T05:16:26;102089.28;;;3.73;100.00
30967;BME280;17649;51.836;8.330;2024-01-30T05:19:26;102089.31;;;3.57;100.00
30967;BME280;17649;51.836;8.330;2024-01-30T05:22:26;102093.56;;;3.60;100.00
30967;BME280;17649;51.836;8.330;2024-01-30T05:25:26;102084.19;;;3.62;100.00
30967;BME280;17649;51.836;8.330;2024-01-30T05:28:26;102089.31;;;3.54;100.00
30967;BME280;17649;51.836;8.330;2024-01-30T05:31:27;102086.81;;;3.32;100.00
30967;BME280;17649;51.836;8.330;2024-01-30T05:34:27;102085.94;;;3.39;100.00
30967;BME280;17649;51.836;8.330;2024-01-30T05:37:27;102091.06;;;3.45;100.00
30967;BME280;17649;51.836;8.330;2024-01-30T05:40:27;102084.22;;;3.47;100.00
30967;BME280;17649;51.836;8.330;2024-01-30T05:43:28;102088.47;;;3.42;100.00
30967;BME280;17649;51.836;8.330;2024-01-30T05:46:28;102092.78;;;3.43;100.00
30967;BME280;17649;51.836;8.330;2024-01-30T05:49:28;102086.78;;;3.39;100.00
30967;BME280;17649;51.836;8.330;2024-01-30T05:52:28;102085.06;;;3.47;100.00
30967;BME280;17649;51.836;8.330;2024-01-30T05:55:29;102089.34;;;3.39;100.00
30967;BME280;17649;51.836;8.330;2024-01-30T05:58:29;102085.06;;;3.41;100.00
30967;BME280;17649;51.836;8.330;2024-01-30T06:01:31;102081.66;;;3.50;100.00
30967;BME280;17649;51.836;8.330;2024-01-30T06:04:31;102074.81;;;3.59;100.00
30967;BME280;17649;51.836;8.330;2024-01-30T06:07:31;102066.25;;;3.64;100.00
30967;BME280;17649;51.836;8.330;2024-01-30T06:10:31;102071.38;;;3.56;100.00
30967;BME280;17649;51.836;8.330;2024-01-30T06:13:31;102075.66;;;3.57;100.00
30967;BME280;17649;51.836;8.330;2024-01-30T06:16:33;102075.66;;;3.60;100.00
30967;BME280;17649;51.836;8.330;2024-01-30T06:19:33;102076.56;;;3.44;100.00
30967;BME280;17649;51.836;8.330;2024-01-30T06:22:34;102082.53;;;3.46;100.00
30967;BME280;17649;51.836;8.330;2024-01-30T06:25:34;102076.56;;;3.38;100.00
30967;BME280;17649;51.836;8.330;2024-01-30T06:28:34;102080.81;;;3.40;100.00
30967;BME280;17649;51.836;8.330;2024-01-30T06:31:39;102068.00;;;3.51;100.00
30967;BME280;17649;51.836;8.330;2024-01-30T06:34:40;102062.91;;;3.46;100.00
30967;BME280;17649;51.836;8.330;2024-01-30T06:37:40;102072.28;;;3.41;100.00
30967;BME280;17649;51.836;8.330;2024-01-30T06:40:41;102074.00;;;3.44;100.00
30967;BME280;17649;51.836;8.330;2024-01-30T06:43:41;102070.59;;;3.37;100.00
30967;BME280;17649;51.836;8.330;2024-01-30T06:46:42;102070.59;;;3.39;100.00
30967;BME280;17649;51.836;8.330;2024-01-30T06:49:42;102066.31;;;3.48;100.00
30967;BME280;17649;51.836;8.330;2024-01-30T06:52:43;102075.72;;;3.43;100.00
30967;BME280;17649;51.836;8.330;2024-01-30T06:55:44;102074.84;;;3.44;100.00
30967;BME280;17649;51.836;8.330;2024-01-30T06:58:44;102068.84;;;3.50;100.00
30967;BME280;17649;51.836;8.330;2024-01-30T07:01:44;102070.56;;;3.51;100.00
30967;BME280;17649;51.836;8.330;2024-01-30T07:04:44;102067.97;;;3.55;100.00
30967;BME280;17649;51.836;8.330;2024-01-30T07:07:45;102077.38;;;3.52;100.00
30967;BME280;17649;51.836;8.330;2024-01-30T07:10:45;102068.81;;;3.56;100.00
30967;BME280;17649;51.836;8.330;2024-01-30T07:13:45;102076.53;;;3.57;100.00
30967;BME280;17649;51.836;8.330;2024-01-30T07:16:46;102072.25;;;3.61;100.00
30967;BME280;17649;51.836;8.330;2024-01-30T07:19:47;102067.94;;;3.66;100.00
30967;BME280;17649;51.836;8.330;2024-01-30T07:22:47;102068.78;;;3.73;100.00
30967;BME280;17649;51.836;8.330;2024-01-30T07:25:47;102072.19;;;3.75;100.00
30967;BME280;17649;51.836;8.330;2024-01-30T07:28:51;102076.44;;;3.71;100.00
30967;BME280;17649;51.836;8.330;2024-01-30T07:31:51;102065.38;;;3.74;100.00
30967;BME280;17649;51.836;8.330;2024-01-30T07:34:51;102072.19;;;3.78;100.00
30967;BME280;17649;51.836;8.330;2024-01-30T07:37:51;102073.00;;;3.89;100.00
30967;BME280;17649;51.836;8.330;2024-01-30T07:40:51;102070.41;;;3.86;100.00
30967;BME280;17649;51.836;8.330;2024-01-30T07:43:53;102084.13;;;3.77;100.00
30967;BME280;17649;51.836;8.330;2024-01-30T07:46:53;102078.91;;;4.03;100.00
30967;BME280;17649;51.836;8.330;2024-01-30T07:49:54;102083.06;;;4.21;100.00
30967;BME280;17649;51.836;8.330;2024-01-30T07:52:59;102081.28;;;4.37;100.00
30967;BME280;17649;51.836;8.330;2024-01-30T08:03:15;102079.16;;;4.92;100.00
30967;BME280;17649;51.836;8.330;2024-01-30T08:06:18;102069.66;;;5.02;100.00
30967;BME280;17649;51.836;8.330;2024-01-30T08:09:18;102063.53;;;5.17;100.00
30967;BME280;17649;51.836;8.330;2024-01-30T08:12:18;102073.69;;;5.27;100.00
30967;BME280;17649;51.836;8.330;2024-01-30T08:15:19;102071.81;;;5.43;100.00
30967;BME280;17649;51.836;8.330;2024-01-30T08:18:20;102060.56;;;5.55;100.00
30967;BME280;17649;51.836;8.330;2024-01-30T08:21:20;102071.53;;;5.69;100.00
30967;BME280;17649;51.836;8.330;2024-01-30T08:24:20;102076.53;;;5.78;100.00
30967;BME280;17649;51.836;8.330;2024-01-30T08:27:20;102078.09;;;5.93;100.00
30967;BME280;17649;51.836;8.330;2024-01-30T08:30:20;102087.22;;;6.17;100.00
30967;BME280;17649;51.836;8.330;2024-01-30T08:33:21;102086.91;;;6.38;100.00
30967;BME280;17649;51.836;8.330;2024-01-30T08:36:21;102082.41;;;6.54;100.00
30967;BME280;17649;51.836;8.330;2024-01-30T08:39:22;102090.63;;;6.77;100.00
30967;BME280;17649;51.836;8.330;2024-01-30T08:42:22;102087.72;;;6.97;100.00
30967;BME280;17649;51.836;8.330;2024-01-30T08:45:23;102084.00;;;7.13;100.00
30967;BME280;17649;51.836;8.330;2024-01-30T08:48:23;102080.19;;;7.36;100.00
30967;BME280;17649;51.836;8.330;2024-01-30T08:51:25;102083.22;;;7.56;100.00
30967;BME280;17649;51.836;8.330;2024-01-30T08:54:25;102082.75;;;7.81;100.00
30967;BME280;17649;51.836;8.330;2024-01-30T08:57:25;102081.41;;;8.03;100.00
30967;BME280;17649;51.836;8.330;2024-01-30T09:00:28;102087.72;;;8.28;100.00
30967;BME280;17649;51.836;8.330;2024-01-30T09:03:29;102085.56;;;8.50;100.00
30967;BME280;17649;51.836;8.330;2024-01-30T09:06:29;102098.91;;;8.68;100.00
30967;BME280;17649;51.836;8.330;2024-01-30T09:09:29;102096.09;;;8.77;100.00
30967;BME280;17649;51.836;8.330;2024-01-30T09:12:30;102089.97;;;8.82;100.00
30967;BME280;17649;51.836;8.330;2024-01-30T09:15:30;102087.28;;;8.85;100.00
30967;BME280;17649;51.836;8.330;2024-01-30T09:18:30;102089.69;;;8.93;100.00
30967;BME280;17649;51.836;8.330;2024-01-30T09:21:31;102087.75;;;9.01;100.00
30967;BME280;17649;51.836;8.330;2024-01-30T09:24:31;102086.47;;;9.17;100.00
30967;BME280;17649;51.836;8.330;2024-01-30T09:27:31;102086.03;;;9.34;100.00
30967;BME280;17649;51.836;8.330;2024-01-30T09:30:31;102099.44;;;9.48;100.00
30967;BME280;17649;51.836;8.330;2024-01-30T09:33:32;102098.16;;;9.63;100.00
30967;BME280;17649;51.836;8.330;2024-01-30T09:36:32;102086.59;;;9.76;100.00
30967;BME280;17649;51.836;8.330;2024-01-30T09:39:32;102091.41;;;9.89;100.00
30967;BME280;17649;51.836;8.330;2024-01-30T09:42:33;102082.31;;;10.05;100.00
30967;BME280;17649;51.836;8.330;2024-01-30T09:45:35;102080.31;;;10.14;100.00
30967;BME280;17649;51.836;8.330;2024-01-30T09:48:35;102088.50;;;10.30;100.00
30967;BME280;17649;51.836;8.330;2024-01-30T09:51:36;102089.03;;;10.40;100.00
30967;BME280;17649;51.836;8.330;2024-01-30T09:54:38;102087.81;;;10.52;100.00
30967;BME280;17649;51.836;8.330;2024-01-30T09:57:38;102089.00;;;10.68;100.00
30967;BME280;17649;51.836;8.330;2024-01-30T10:00:39;102079.38;;;10.73;100.00
30967;BME280;17649;51.836;8.330;2024-01-30T10:03:39;102087.09;;;10.99;100.00
30967;BME280;17649;51.836;8.330;2024-01-30T10:06:40;102094.16;;;11.21;100.00
30967;BME280;17649;51.836;8.330;2024-01-30T10:09:40;102089.81;;;10.96;100.00
30967;BME280;17649;51.836;8.330;2024-01-30T10:12:40;102091.47;;;11.24;100.00
30967;BME280;17649;51.836;8.330;2024-01-30T10:15:41;102082.72;;;11.51;100.00
30967;BME280;17649;51.836;8.330;2024-01-30T10:18:41;102078.09;;;11.59;100.00
30967;BME280;17649;51.836;8.330;2024-01-30T10:21:41;102084.59;;;11.48;100.00
30967;BME280;17649;51.836;8.330;2024-01-30T10:24:42;102078.66;;;11.44;100.00
30967;BME280;17649;51.836;8.330;2024-01-30T10:27:42;102082.69;;;11.28;100.00
30967;BME280;17649;51.836;8.330;2024-01-30T10:30:43;102081.28;;;11.43;100.00
30967;BME280;17649;51.836;8.330;2024-01-30T10:33:43;102082.13;;;11.43;100.00
30967;BME280;17649;51.836;8.330;2024-01-30T10:36:44;102079.91;;;11.57;100.00
30967;BME280;17649;51.836;8.330;2024-01-30T10:39:46;102076.22;;;11.88;100.00
30967;BME280;17649;51.836;8.330;2024-01-30T10:42:46;102079.44;;;11.94;100.00
30967;BME280;17649;51.836;8.330;2024-01-30T10:45:47;102080.00;;;12.46;100.00
30967;BME280;17649;51.836;8.330;2024-01-30T10:48:50;102066.97;;;12.90;100.00
30967;BME280;17649;51.836;8.330;2024-01-30T10:51:51;102068.47;;;13.36;100.00
30967;BME280;17649;51.836;8.330;2024-01-30T10:54:53;102057.06;;;13.20;100.00
30967;BME280;17649;51.836;8.330;2024-01-30T10:57:54;102048.44;;;13.38;100.00
30967;BME280;17649;51.836;8.330;2024-01-30T11:00:54;102047.44;;;13.22;100.00
30967;BME280;17649;51.836;8.330;2024-01-30T11:03:55;102043.47;;;13.53;100.00
30967;BME280;17649;51.836;8.330;2024-01-30T11:06:56;102048.25;;;13.43;100.00
30967;BME280;17649;51.836;8.330;2024-01-30T11:12:57;102037.94;;;13.60;100.00
30967;BME280;17649;51.836;8.330;2024-01-30T11:16:01;102038.91;;;14.14;100.00
30967;BME280;17649;51.836;8.330;2024-01-30T11:19:02;102035.22;;;14.01;100.00
30967;BME280;17649;51.836;8.330;2024-01-30T11:22:02;102038.72;;;14.36;100.00
30967;BME280;17649;51.836;8.330;2024-01-30T11:25:05;102041.75;;;13.72;100.00
30967;BME280;17649;51.836;8.330;2024-01-30T11:28:05;102044.97;;;14.68;100.00
30967;BME280;17649;51.836;8.330;2024-01-30T11:31:12;102051.09;;;14.50;100.00
30967;BME280;17649;51.836;8.330;2024-01-30T11:34:18;102047.84;;;14.09;100.00
30967;BME280;17649;51.836;8.330;2024-01-30T11:37:20;102044.25;;;14.30;100.00
30967;BME280;17649;51.836;8.330;2024-01-30T11:40:21;102034.13;;;14.05;100.00
30967;BME280;17649;51.836;8.330;2024-01-30T11:43:22;102040.81;;;13.92;100.00
30967;BME280;17649;51.836;8.330;2024-01-30T11:46:24;102039.16;;;13.72;100.00
30967;BME280;17649;51.836;8.330;2024-01-30T11:49:24;102034.56;;;13.77;100.00
30967;BME280;17649;51.836;8.330;2024-01-30T11:52:25;102032.22;;;13.33;100.00
30967;BME280;17649;51.836;8.330;2024-01-30T11:55:25;102032.59;;;13.45;100.00
30967;BME280;17649;51.836;8.330;2024-01-30T11:58:25;102032.91;;;13.57;100.00
30967;BME280;17649;51.836;8.330;2024-01-30T12:01:26;102029.44;;;13.57;100.00
30967;BME280;17649;51.836;8.330;2024-01-30T12:04:30;102030.16;;;13.60;100.00
30967;BME280;17649;51.836;8.330;2024-01-30T12:07:30;102034.50;;;13.41;100.00
30967;BME280;17649;51.836;8.330;2024-01-30T12:10:30;102038.31;;;13.90;100.00
30967;BME280;17649;51.836;8.330;2024-01-30T12:13:30;102023.03;;;14.01;100.00
30967;BME280;17649;51.836;8.330;2024-01-30T12:16:31;102024.00;;;14.18;100.00
30967;BME280;17649;51.836;8.330;2024-01-30T12:19:31;102027.41;;;14.01;100.00
30967;BME280;17649;51.836;8.330;2024-01-30T12:22:32;102032.72;;;13.98;100.00
30967;BME280;17649;51.836;8.330;2024-01-30T12:25:32;102043.72;;;13.86;100.00
30967;BME280;17649;51.836;8.330;2024-01-30T12:28:33;102036.25;;;13.97;100.00
30967;BME280;17649;51.836;8.330;2024-01-30T12:31:33;102043.00;;;13.82;100.00
30967;BME280;17649;51.836;8.330;2024-01-30T12:34:34;102040.06;;;13.90;100.00
30967;BME280;17649;51.836;8.330;2024-01-30T12:37:35;102043.28;;;13.95;100.00
30967;BME280;17649;51.836;8.330;2024-01-30T12:40:35;102050.31;;;13.93;100.00
30967;BME280;17649;51.836;8.330;2024-01-30T12:43:35;102057.50;;;13.88;100.00
30967;BME280;17649;51.836;8.330;2024-01-30T12:46:36;102047.00;;;13.52;100.00
30967;BME280;17649;51.836;8.330;2024-01-30T12:49:36;102044.22;;;13.75;100.00
30967;BME280;17649;51.836;8.330;2024-01-30T12:52:37;102058.91;;;13.76;100.00
30967;BME280;17649;51.836;8.330;2024-01-30T12:55:38;102049.34;;;13.77;100.00
30967;BME280;17649;51.836;8.330;2024-01-30T12:58:38;102050.19;;;13.77;100.00
30967;BME280;17649;51.836;8.330;2024-01-30T13:01:38;102048.34;;;13.79;100.00
30967;BME280;17649;51.836;8.330;2024-01-30T13:04:39;102047.78;;;13.91;100.00
30967;BME280;17649;51.836;8.330;2024-01-30T13:07:39;102049.34;;;13.77;100.00
30967;BME280;17649;51.836;8.330;2024-01-30T13:10:39;102044.41;;;13.52;100.00
30967;BME280;17649;51.836;8.330;2024-01-30T13:13:40;102045.38;;;13.68;100.00
30967;BME280;17649;51.836;8.330;2024-01-30T13:16:40;102041.31;;;13.43;100.00
30967;BME280;17649;51.836;8.330;2024-01-30T13:19:40;102052.75;;;13.39;100.00
30967;BME280;17649;51.836;8.330;2024-01-30T13:22:40;102052.69;;;13.41;100.00
30967;BME280;17649;51.836;8.330;2024-01-30T13:25:41;102058.22;;;13.33;100.00
30967;BME280;17649;51.836;8.330;2024-01-30T13:28:41;102064.19;;;13.35;100.00
30967;BME280;17649;51.836;8.330;2024-01-30T13:31:41;102048.09;;;13.27;100.00
30967;BME280;17649;51.836;8.330;2024-01-30T13:34:41;102061.34;;;13.21;100.00
30967;BME280;17649;51.836;8.330;2024-01-30T13:37:43;102058.59;;;13.45;100.00
30967;BME280;17649;51.836;8.330;2024-01-30T13:40:43;102050.16;;;13.39;100.00
30967;BME280;17649;51.836;8.330;2024-01-30T13:43:43;102055.91;;;13.27;100.00
30967;BME280;17649;51.836;8.330;2024-01-30T13:46:44;102037.78;;;13.45;100.00
30967;BME280;17649;51.836;8.330;2024-01-30T13:49:46;102038.84;;;13.40;100.00
30967;BME280;17649;51.836;8.330;2024-01-30T13:52:46;102062.13;;;13.23;100.00
30967;BME280;17649;51.836;8.330;2024-01-30T13:55:47;102054.31;;;13.23;100.00
30967;BME280;17649;51.836;8.330;2024-01-30T13:58:50;102056.81;;;13.26;100.00
30967;BME280;17649;51.836;8.330;2024-01-30T14:01:50;102051.97;;;13.37;100.00
30967;BME280;17649;51.836;8.330;2024-01-30T14:04:51;102065.69;;;13.21;100.00
30967;BME280;17649;51.836;8.330;2024-01-30T14:07:54;102060.19;;;13.28;100.00
30967;BME280;17649;51.836;8.330;2024-01-30T14:10:54;102061.34;;;13.21;100.00
30967;BME280;17649;51.836;8.330;2024-01-30T14:13:56;102061.97;;;13.06;100.00
30967;BME280;17649;51.836;8.330;2024-01-30T14:16:56;102070.50;;;13.09;100.00
30967;BME280;17649;51.836;8.330;2024-01-30T14:19:56;102081.75;;;13.10;100.00
30967;BME280;17649;51.836;8.330;2024-01-30T14:22:56;102074.38;;;12.99;100.00
30967;BME280;17649;51.836;8.330;2024-01-30T14:25:57;102076.38;;;12.93;100.00
30967;BME280;17649;51.836;8.330;2024-01-30T14:28:57;102081.19;;;13.02;100.00
30967;BME280;17649;51.836;8.330;2024-01-30T14:31:57;102073.34;;;12.83;100.00
30967;BME280;17649;51.836;8.330;2024-01-30T14:34:57;102077.41;;;13.09;100.00
30967;BME280;17649;51.836;8.330;2024-01-30T14:37:57;102080.34;;;13.01;100.00
30967;BME280;17649;51.836;8.330;2024-01-30T14:40:58;102078.28;;;12.89;100.00
30967;BME280;17649;51.836;8.330;2024-01-30T14:43:58;102088.47;;;12.94;100.00
30967;BME280;17649;51.836;8.330;2024-01-30T14:46:58;102085.34;;;12.86;100.00
30967;BME280;17649;51.836;8.330;2024-01-30T14:49:58;102078.53;;;13.03;100.00
30967;BME280;17649;51.836;8.330;2024-01-30T14:52:59;102072.00;;;12.95;100.00
30967;BME280;17649;51.836;8.330;2024-01-30T14:55:59;102075.56;;;13.12;100.00
30967;BME280;17649;51.836;8.330;2024-01-30T14:58:59;102087.88;;;12.87;100.00
30967;BME280;17649;51.836;8.330;2024-01-30T15:02:00;102086.88;;;12.69;100.00
30967;BME280;17649;51.836;8.330;2024-01-30T15:05:00;102094.00;;;12.64;100.00
30967;BME280;17649;51.836;8.330;2024-01-30T15:08:00;102099.25;;;12.63;100.00
30967;BME280;17649;51.836;8.330;2024-01-30T15:11:01;102098.34;;;12.64;100.00
30967;BME280;17649;51.836;8.330;2024-01-30T15:14:04;102102.47;;;12.69;100.00
30967;BME280;17649;51.836;8.330;2024-01-30T15:17:04;102104.56;;;12.81;100.00
30967;BME280;17649;51.836;8.330;2024-01-30T15:20:04;102107.25;;;12.80;100.00
30967;BME280;17649;51.836;8.330;2024-01-30T15:23:05;102103.91;;;12.76;100.00
30967;BME280;17649;51.836;8.330;2024-01-30T15:26:05;102110.56;;;12.62;100.00
30967;BME280;17649;51.836;8.330;2024-01-30T15:29:06;102112.47;;;12.78;100.00
30967;BME280;17649;51.836;8.330;2024-01-30T15:32:06;102109.13;;;12.54;100.00
30967;BME280;17649;51.836;8.330;2024-01-30T15:35:06;102100.72;;;12.48;100.00
30967;BME280;17649;51.836;8.330;2024-01-30T15:38:08;102103.69;;;12.39;100.00
30967;BME280;17649;51.836;8.330;2024-01-30T15:41:09;102112.31;;;12.61;100.00
30967;BME280;17649;51.836;8.330;2024-01-30T15:44:09;102117.44;;;12.41;100.00
30967;BME280;17649;51.836;8.330;2024-01-30T15:47:09;102121.78;;;12.40;100.00